createdAt,value
2022-11-05T00:00:20.306Z,85.63
2022-11-05T00:01:41.770Z,85.55
2022-11-05T00:03:03.053Z,85.56
2022-11-05T00:04:11.132Z,85.55
2022-11-05T00:05:32.617Z,85.51
2022-11-05T00:06:53.664Z,85.48
2022-11-05T00:08:15.941Z,85.46
2022-11-05T00:09:32.218Z,85.49
2022-11-05T00:10:37.614Z,85.41
2022-11-05T00:11:58.848Z,85.41
2022-11-05T00:13:20.368Z,85.42
2022-11-05T00:14:41.626Z,85.42
2022-11-05T00:16:03.491Z,85.44
2022-11-05T00:17:06.328Z,85.45
2022-11-05T00:18:09.152Z,85.52
2022-11-05T00:19:12.900Z,85.49
2022-11-05T00:20:17.564Z,85.50
2022-11-05T00:21:38.682Z,85.44
2022-11-05T00:23:00.026Z,85.39
2022-11-05T00:24:24.272Z,85.33
2022-11-05T00:25:31.362Z,85.38
2022-11-05T00:26:34.243Z,85.38
2022-11-05T00:27:37.425Z,85.43
2022-11-05T00:28:43.190Z,85.49
2022-11-05T00:29:46.193Z,85.52
2022-11-05T00:30:49.270Z,85.53
2022-11-05T00:31:52.647Z,85.50
2022-11-05T00:32:59.084Z,85.32
2022-11-05T00:34:02.367Z,85.36
2022-11-05T00:35:07.543Z,85.25
2022-11-05T00:36:11.389Z,85.20
2022-11-05T00:37:15.222Z,85.19
2022-11-05T00:38:18.459Z,85.14
2022-11-05T00:39:21.310Z,85.02
2022-11-05T00:40:24.147Z,84.99
2022-11-05T00:41:27.309Z,84.97
2022-11-05T00:42:48.517Z,84.92
2022-11-05T00:44:10.965Z,84.78
2022-11-05T00:45:13.849Z,84.72
2022-11-05T00:46:17.233Z,84.78
2022-11-05T00:47:38.799Z,84.68
2022-11-05T00:49:00.221Z,84.67
2022-11-05T00:50:03.468Z,84.63
2022-11-05T00:51:06.995Z,84.54
2022-11-05T00:52:28.087Z,84.47
2022-11-05T00:53:30.937Z,84.46
2022-11-05T00:54:33.807Z,84.48
2022-11-05T00:55:39.528Z,84.47
2022-11-05T00:56:42.383Z,84.44
2022-11-05T00:57:45.217Z,84.33
2022-11-05T00:58:48.480Z,84.34
2022-11-05T00:59:51.392Z,84.40
2022-11-05T01:00:57.883Z,84.41
2022-11-05T01:02:00.941Z,84.33
2022-11-05T01:03:15.804Z,84.31
2022-11-05T01:04:20.080Z,84.31
2022-11-05T01:05:22.931Z,84.32
2022-11-05T01:06:25.743Z,84.35
2022-11-05T01:07:28.622Z,84.31
2022-11-05T01:08:31.464Z,84.37
2022-11-05T01:09:34.513Z,84.44
2022-11-05T01:10:43.373Z,84.33
2022-11-05T01:11:46.403Z,84.41
2022-11-05T01:12:49.322Z,84.31
2022-11-05T01:13:52.403Z,84.32
2022-11-05T01:14:55.326Z,84.31
2022-11-05T01:16:01.791Z,84.28
2022-11-05T01:17:04.885Z,84.29
2022-11-05T01:18:08.103Z,84.36
2022-11-05T01:19:11.934Z,84.28
2022-11-05T01:20:15.909Z,84.28
2022-11-05T01:21:18.861Z,84.25
2022-11-05T01:22:21.684Z,84.39
2022-11-05T01:23:24.592Z,84.33
2022-11-05T01:24:27.526Z,84.32
2022-11-05T01:25:30.439Z,84.35
2022-11-05T01:26:33.458Z,84.32
2022-11-05T01:27:37.581Z,84.35
2022-11-05T01:28:40.519Z,84.32
2022-11-05T01:29:43.659Z,84.25
2022-11-05T01:30:48.268Z,84.25
2022-11-05T01:31:51.444Z,84.21
2022-11-05T01:32:54.437Z,84.16
2022-11-05T01:33:59.029Z,84.15
2022-11-05T01:35:03.178Z,84.11
2022-11-05T01:36:06.542Z,84.10
2022-11-05T01:37:09.475Z,84.02
2022-11-05T01:38:12.294Z,83.97
2022-11-05T01:39:15.385Z,84.04
2022-11-05T01:40:21.847Z,84.04
2022-11-05T01:41:24.700Z,83.93
2022-11-05T01:42:30.197Z,83.94
2022-11-05T01:43:54.696Z,83.89
2022-11-05T01:45:01.101Z,83.97
2022-11-05T01:46:03.975Z,83.90
2022-11-05T01:47:09.673Z,83.96
2022-11-05T01:48:16.124Z,83.93
2022-11-05T01:49:28.504Z,83.96
2022-11-05T01:50:35.090Z,83.79
2022-11-05T01:51:39.442Z,83.88
2022-11-05T01:52:42.315Z,83.88
2022-11-05T01:54:00.742Z,83.84
2022-11-05T01:55:05.080Z,83.92
2022-11-05T01:56:11.673Z,83.89
2022-11-05T01:57:15.216Z,83.88
2022-11-05T01:58:21.318Z,83.91
2022-11-05T01:59:30.391Z,83.86
2022-11-05T02:00:35.784Z,83.91
2022-11-05T02:01:39.121Z,84.00
2022-11-05T02:02:43.673Z,84.00
2022-11-05T02:03:49.525Z,83.89
2022-11-05T02:04:56.332Z,83.85
2022-11-05T02:06:02.090Z,83.88
2022-11-05T02:07:07.108Z,83.85
2022-11-05T02:08:14.134Z,83.88
2022-11-05T02:09:20.539Z,83.78
2022-11-05T02:10:23.708Z,83.72
2022-11-05T02:11:26.565Z,83.69
2022-11-05T02:12:30.412Z,83.78
2022-11-05T02:13:33.366Z,83.72
2022-11-05T02:14:37.195Z,83.68
2022-11-05T02:15:52.437Z,83.63
2022-11-05T02:17:22.079Z,83.65
2022-11-05T02:18:40.747Z,83.63
2022-11-05T02:20:02.433Z,83.67
2022-11-05T02:21:34.378Z,83.67
2022-11-05T02:23:11.546Z,83.71
2022-11-05T02:24:39.499Z,83.75
2022-11-05T02:26:01.276Z,83.83
2022-11-05T02:27:19.464Z,83.84
2022-11-05T02:28:34.859Z,83.83
2022-11-05T02:30:07.201Z,83.81
2022-11-05T02:31:19.640Z,83.81
2022-11-05T02:33:56.270Z,83.96
2022-11-05T02:35:27.045Z,83.80
2022-11-05T02:36:39.475Z,83.77
2022-11-05T02:37:54.806Z,83.79
2022-11-05T02:39:17.881Z,83.66
2022-11-05T02:40:42.348Z,83.67
2022-11-05T02:42:03.515Z,83.52
2022-11-05T02:43:15.924Z,83.48
2022-11-05T02:44:25.157Z,83.49
2022-11-05T02:45:34.768Z,83.55
2022-11-05T02:46:46.972Z,83.53
2022-11-05T02:48:05.847Z,83.48
2022-11-05T02:49:28.547Z,83.40
2022-11-05T02:50:43.821Z,83.45
2022-11-05T02:51:58.086Z,83.54
2022-11-05T02:53:13.703Z,83.58
2022-11-05T02:54:35.625Z,83.65
2022-11-05T02:55:42.101Z,83.63
2022-11-05T02:56:47.948Z,83.56
2022-11-05T02:57:50.802Z,83.52
2022-11-05T02:58:53.654Z,83.65
2022-11-05T03:00:06.101Z,83.53
2022-11-05T03:01:11.914Z,83.61
2022-11-05T03:02:14.947Z,83.50
2022-11-05T03:03:21.575Z,83.54
2022-11-05T03:04:25.825Z,83.56
2022-11-05T03:05:32.248Z,83.62
2022-11-05T03:07:10.352Z,83.55
2022-11-05T03:08:16.745Z,83.49
2022-11-05T03:09:32.536Z,83.54
2022-11-05T03:10:42.248Z,83.57
2022-11-05T03:12:03.206Z,83.64
2022-11-05T03:13:24.585Z,83.69
2022-11-05T03:14:53.582Z,83.74
2022-11-05T03:16:00.144Z,83.64
2022-11-05T03:17:13.183Z,83.68
2022-11-05T03:18:26.001Z,83.66
2022-11-05T03:19:32.516Z,83.70
2022-11-05T03:20:39.119Z,83.70
2022-11-05T03:21:55.817Z,83.69
2022-11-05T03:23:26.493Z,83.69
2022-11-05T03:24:35.362Z,83.62
2022-11-05T03:25:47.881Z,83.61
2022-11-05T03:26:57.886Z,83.63
2022-11-05T03:28:04.279Z,83.49
2022-11-05T03:29:10.669Z,83.51
2022-11-05T03:30:18.239Z,83.52
2022-11-05T03:31:24.809Z,83.53
2022-11-05T03:32:31.364Z,83.52
2022-11-05T03:33:38.357Z,83.67
2022-11-05T03:34:54.012Z,83.53
2022-11-05T03:36:00.531Z,83.55
2022-11-05T03:37:05.887Z,83.56
2022-11-05T03:38:24.297Z,83.51
2022-11-05T03:39:31.000Z,83.35
2022-11-05T03:40:37.153Z,83.24
2022-11-05T03:41:43.163Z,83.21
2022-11-05T03:42:49.853Z,83.30
2022-11-05T03:43:56.881Z,83.15
2022-11-05T03:45:03.603Z,83.13
2022-11-05T03:46:22.178Z,83.10
2022-11-05T03:47:32.217Z,83.05
2022-11-05T03:48:38.701Z,82.99
2022-11-05T03:49:45.184Z,83.00
2022-11-05T03:51:00.732Z,82.91
2022-11-05T03:52:09.845Z,82.92
2022-11-05T03:53:16.287Z,82.98
2022-11-05T03:54:19.057Z,82.99
2022-11-05T03:55:25.438Z,82.96
2022-11-05T03:56:34.622Z,82.92
2022-11-05T03:57:41.000Z,82.83
2022-11-05T03:58:45.281Z,82.76
2022-11-05T03:59:50.124Z,82.83
2022-11-05T04:00:53.085Z,82.72
2022-11-05T04:01:56.732Z,82.74
2022-11-05T04:02:59.992Z,82.62
2022-11-05T04:04:04.902Z,82.52
2022-11-05T04:05:08.152Z,82.56
2022-11-05T04:06:30.496Z,82.54
2022-11-05T04:07:51.877Z,82.51
2022-11-05T04:09:13.317Z,82.58
2022-11-05T04:10:35.298Z,82.50
2022-11-05T04:11:56.665Z,82.53
2022-11-05T04:13:18.185Z,82.55
2022-11-05T04:14:21.687Z,82.61
2022-11-05T04:15:25.059Z,82.71
2022-11-05T04:16:46.455Z,82.65
2022-11-05T04:17:49.377Z,82.60
2022-11-05T04:18:52.508Z,82.64
2022-11-05T04:20:14.374Z,82.52
2022-11-05T04:21:35.895Z,82.43
2022-11-05T04:22:57.341Z,82.57
2022-11-05T04:24:09.495Z,82.50
2022-11-05T04:25:13.628Z,82.60
2022-11-05T04:26:16.454Z,82.51
2022-11-05T04:27:19.270Z,82.51
2022-11-05T04:28:23.969Z,82.49
2022-11-05T04:29:37.984Z,82.53
2022-11-05T04:30:41.268Z,82.59
2022-11-05T04:31:44.312Z,82.49
2022-11-05T04:33:07.705Z,82.43
2022-11-05T04:34:10.827Z,82.41
2022-11-05T04:35:13.959Z,82.36
2022-11-05T04:36:19.073Z,82.35
2022-11-05T04:37:22.124Z,82.38
2022-11-05T04:38:24.936Z,82.25
2022-11-05T04:39:27.748Z,82.31
2022-11-05T04:40:30.704Z,82.26
2022-11-05T04:41:33.640Z,82.37
2022-11-05T04:42:36.593Z,82.35
2022-11-05T04:43:39.560Z,82.31
2022-11-05T04:44:42.414Z,82.40
2022-11-05T04:45:45.536Z,82.32
2022-11-05T04:46:48.469Z,82.31
2022-11-05T04:47:51.550Z,82.31
2022-11-05T04:48:54.454Z,82.26
2022-11-05T04:49:57.401Z,82.28
2022-11-05T04:51:00.289Z,82.24
2022-11-05T04:52:03.265Z,82.29
2022-11-05T04:53:06.209Z,82.24
2022-11-05T04:54:09.188Z,82.33
2022-11-05T04:55:12.340Z,82.33
2022-11-05T04:56:21.766Z,82.31
2022-11-05T04:57:24.724Z,82.35
2022-11-05T04:58:27.787Z,82.24
2022-11-05T04:59:30.723Z,82.36
2022-11-05T05:00:33.578Z,82.32
2022-11-05T05:01:36.748Z,82.16
2022-11-05T05:02:39.795Z,82.06
2022-11-05T05:03:43.205Z,81.98
2022-11-05T05:04:46.030Z,81.91
2022-11-05T05:05:50.260Z,81.91
2022-11-05T05:06:53.832Z,81.98
2022-11-05T05:08:04.281Z,81.99
2022-11-05T05:09:07.672Z,82.01
2022-11-05T05:10:11.377Z,82.00
2022-11-05T05:11:16.657Z,81.96
2022-11-05T05:12:19.819Z,82.04
2022-11-05T05:13:22.759Z,81.97
2022-11-05T05:14:25.789Z,81.94
2022-11-05T05:15:28.863Z,81.91
2022-11-05T05:16:32.174Z,81.96
2022-11-05T09:10:01.910Z,83.46
2022-11-05T09:11:05.575Z,83.17
2022-11-05T09:12:12.988Z,82.86
2022-11-05T09:13:18.769Z,82.68
2022-11-05T09:14:18.246Z,82.47
2022-11-05T09:15:22.641Z,82.30
2022-11-05T09:16:26.210Z,82.15
2022-11-05T09:17:29.354Z,82.04
2022-11-05T09:18:33.329Z,81.88
2022-11-05T09:19:39.789Z,81.69
2022-11-05T09:20:41.653Z,81.58
2022-11-05T09:21:44.812Z,81.44
2022-11-05T09:22:47.756Z,81.32
2022-11-05T09:23:50.683Z,81.25
2022-11-05T09:24:53.647Z,80.93
2022-11-05T09:25:56.608Z,80.68
2022-11-05T09:26:59.547Z,80.42
2022-11-05T09:29:27.975Z,80.00
2022-11-05T09:30:31.221Z,79.94
2022-11-05T09:31:34.124Z,79.82
2022-11-05T09:32:37.237Z,79.86
2022-11-05T09:33:40.870Z,79.80
2022-11-05T09:34:44.423Z,79.74
2022-11-05T09:35:47.263Z,79.52
2022-11-05T09:36:50.116Z,79.35
2022-11-05T09:37:58.202Z,79.17
2022-11-05T09:38:57.985Z,79.00
2022-11-05T09:40:01.120Z,78.90
2022-11-05T09:41:08.281Z,78.81
2022-11-05T09:42:14.779Z,78.74
2022-11-05T09:43:20.288Z,78.51
2022-11-05T09:44:29.762Z,78.33
2022-11-05T09:45:35.547Z,78.06
2022-11-05T09:46:50.997Z,77.87
2022-11-05T09:47:57.649Z,77.67
2022-11-05T09:49:06.847Z,77.49
2022-11-05T09:50:16.547Z,77.48
2022-11-05T09:51:23.895Z,77.42
2022-11-05T09:52:30.340Z,77.14
2022-11-05T09:53:36.380Z,76.73
2022-11-05T09:54:39.754Z,76.41
2022-11-05T09:55:45.770Z,76.19
2022-11-05T09:56:48.750Z,76.08
2022-11-05T09:58:00.902Z,76.16
2022-11-05T09:59:13.296Z,76.16
2022-11-05T10:00:17.075Z,75.99
2022-11-05T10:02:38.861Z,75.48
2022-11-05T10:03:45.434Z,75.08
2022-11-05T10:04:52.349Z,74.99
2022-11-05T10:05:58.910Z,74.96
2022-11-05T10:07:05.309Z,74.74
2022-11-05T10:08:23.224Z,74.71
2022-11-05T10:09:39.636Z,74.81
2022-11-05T10:10:49.043Z,75.01
2022-11-05T10:11:55.547Z,75.01
2022-11-05T10:13:07.714Z,74.93
2022-11-05T10:14:14.301Z,74.92
2022-11-05T10:15:23.713Z,74.95
2022-11-05T10:16:32.931Z,74.96
2022-11-05T10:17:39.280Z,74.95
2022-11-05T10:18:46.087Z,74.83
2022-11-05T10:19:55.967Z,74.81
2022-11-05T10:20:59.001Z,74.85
2022-11-05T10:22:10.737Z,74.68
2022-11-05T10:23:16.877Z,74.62
2022-11-05T10:24:21.012Z,74.64
2022-11-05T10:25:27.512Z,74.59
2022-11-05T10:26:30.476Z,74.49
2022-11-05T10:27:36.382Z,74.46
2022-11-05T10:28:39.438Z,74.36
2022-11-05T10:29:43.028Z,74.28
2022-11-05T10:30:48.785Z,74.06
2022-11-05T10:31:53.953Z,73.76
2022-11-05T10:33:00.197Z,73.37
2022-11-05T10:34:06.231Z,73.23
2022-11-05T10:35:12.687Z,73.20
2022-11-05T10:36:32.344Z,73.16
2022-11-05T10:37:40.629Z,73.03
2022-11-05T10:38:41.514Z,73.02
2022-11-05T10:39:44.356Z,73.11
2022-11-05T10:40:50.844Z,73.17
2022-11-05T10:42:18.241Z,73.27
2022-11-05T10:43:44.710Z,73.38
2022-11-05T10:44:54.334Z,73.38
2022-11-05T10:50:58.803Z,73.36
2022-11-05T10:52:05.251Z,73.34
2022-11-05T10:53:32.581Z,73.38
2022-11-05T10:54:36.004Z,73.33
2022-11-05T10:55:42.107Z,73.52
2022-11-05T10:56:45.594Z,73.25
2022-11-05T10:57:50.348Z,72.98
2022-11-05T10:58:56.296Z,72.91
2022-11-05T11:00:18.037Z,72.86
2022-11-05T11:01:22.862Z,72.89
2022-11-05T11:02:28.646Z,72.78
2022-11-05T11:03:46.541Z,72.64
2022-11-05T11:04:55.694Z,72.66
2022-11-05T11:06:03.946Z,72.41
2022-11-05T11:07:19.711Z,72.36
2022-11-05T11:08:25.562Z,72.34
2022-11-05T11:09:34.554Z,72.28
2022-11-05T11:10:43.976Z,72.17
2022-11-05T11:11:51.532Z,72.23
2022-11-05T11:12:56.711Z,72.15
2022-11-05T11:14:15.415Z,72.23
2022-11-05T11:15:25.566Z,72.03
2022-11-05T11:16:32.130Z,72.03
2022-11-05T11:17:35.030Z,72.03
2022-11-05T11:18:41.122Z,72.09
2022-11-05T11:19:44.677Z,72.06
2022-11-05T11:20:47.647Z,72.02
2022-11-05T11:22:06.252Z,71.84
2022-11-05T11:23:15.115Z,71.72
2022-11-05T11:24:24.624Z,71.86
2022-11-05T11:25:34.980Z,71.91
2022-11-05T11:26:39.974Z,71.87
2022-11-05T11:27:42.917Z,71.74
2022-11-05T11:28:49.135Z,71.74
2022-11-05T11:29:59.401Z,71.74
2022-11-05T11:31:14.769Z,71.75
2022-11-05T11:32:20.037Z,71.93
2022-11-05T11:33:26.963Z,72.08
2022-11-05T11:34:38.821Z,72.21
2022-11-05T11:35:47.441Z,72.20
2022-11-05T11:41:55.995Z,72.19
2022-11-05T11:43:02.416Z,72.37
2022-11-05T11:44:14.690Z,72.31
2022-11-05T11:45:30.277Z,72.31
2022-11-05T11:46:34.771Z,72.38
2022-11-05T11:47:41.359Z,72.60
2022-11-05T11:48:47.090Z,72.73
2022-11-05T11:49:59.143Z,72.60
2022-11-05T11:51:17.682Z,72.60
2022-11-05T11:52:30.424Z,72.57
2022-11-05T11:53:35.076Z,72.51
2022-11-05T11:54:38.286Z,72.40
2022-11-05T11:55:43.213Z,72.38
2022-11-05T11:56:47.974Z,72.47
2022-11-05T11:57:54.050Z,72.54
2022-11-05T11:58:59.861Z,72.46
2022-11-05T12:00:08.715Z,72.40
2022-11-05T12:01:28.372Z,72.39
2022-11-05T12:07:16.946Z,72.59
2022-11-05T12:08:50.692Z,72.67
2022-11-05T12:10:13.691Z,72.74
2022-11-05T12:11:28.900Z,72.80
2022-11-05T12:12:51.897Z,72.81
2022-11-05T12:14:01.794Z,72.66
2022-11-05T12:15:26.583Z,72.43
2022-11-05T12:16:49.156Z,72.43
2022-11-05T12:18:04.874Z,72.38
2022-11-05T12:19:41.746Z,72.28
2022-11-05T12:21:00.182Z,72.29
2022-11-05T12:22:24.614Z,72.42
2022-11-05T12:23:39.859Z,72.21
2022-11-05T12:24:57.881Z,72.28
2022-11-05T12:26:16.176Z,72.33
2022-11-05T12:27:25.800Z,72.36
2022-11-05T12:28:36.231Z,72.31
2022-11-05T12:29:51.891Z,72.22
2022-11-05T12:31:04.067Z,72.23
2022-11-05T12:32:30.483Z,72.05
2022-11-05T12:33:48.658Z,72.08
2022-11-05T12:35:01.681Z,72.42
2022-11-05T12:36:21.616Z,72.42
2022-11-05T12:37:43.702Z,72.56
2022-11-05T12:39:06.607Z,72.71
2022-11-05T12:40:28.501Z,72.67
2022-11-05T12:41:59.342Z,72.52
2022-11-05T12:43:11.749Z,72.54
2022-11-05T12:44:32.334Z,72.53
2022-11-05T12:45:47.802Z,72.67
2022-11-05T12:47:03.505Z,72.59
2022-11-05T12:48:23.298Z,72.08
2022-11-05T12:49:59.649Z,72.08
2022-11-05T12:51:06.226Z,71.93
2022-11-05T12:52:21.905Z,71.87
2022-11-05T12:53:34.322Z,71.96
2022-11-05T12:54:52.719Z,72.14
2022-11-05T12:55:59.321Z,72.10
2022-11-05T12:57:03.892Z,72.08
2022-11-05T12:58:13.093Z,72.04
2022-11-05T12:59:34.592Z,72.03
2022-11-05T13:00:41.123Z,72.16
2022-11-05T13:01:47.900Z,72.16
2022-11-05T13:02:54.442Z,72.20
2022-11-05T13:04:01.009Z,72.13
2022-11-05T13:05:38.053Z,72.13
2022-11-05T13:06:44.782Z,72.08
2022-11-05T13:08:00.518Z,71.90
2022-11-05T13:09:16.947Z,71.77
2022-11-05T13:10:38.339Z,71.77
2022-11-05T13:11:56.817Z,71.67
2022-11-05T13:13:06.485Z,71.72
2022-11-05T13:14:15.807Z,71.73
2022-11-05T13:15:28.239Z,71.57
2022-11-05T13:16:37.388Z,71.48
2022-11-05T13:17:56.256Z,71.50
2022-11-05T13:19:14.859Z,71.52
2022-11-05T13:20:21.444Z,71.57
2022-11-05T13:21:28.139Z,71.60
2022-11-05T13:22:46.209Z,71.52
2022-11-05T13:24:01.933Z,71.67
2022-11-05T13:25:11.447Z,71.89
2022-11-05T13:26:21.628Z,71.99
2022-11-05T13:27:56.985Z,71.86
2022-11-05T13:29:15.345Z,71.82
2022-11-05T13:30:21.886Z,71.73
2022-11-05T13:31:31.465Z,71.79
2022-11-05T13:32:37.967Z,71.78
2022-11-05T13:33:46.775Z,71.86
2022-11-05T13:34:51.957Z,71.73
2022-11-05T13:36:16.658Z,71.69
2022-11-05T13:37:30.555Z,71.67
2022-11-05T13:40:01.077Z,71.52
2022-11-05T13:41:31.497Z,71.34
2022-11-05T13:42:49.933Z,71.18
2022-11-05T13:44:02.370Z,70.96
2022-11-05T13:45:21.084Z,71.05
2022-11-05T13:46:33.688Z,70.97
2022-11-05T13:48:01.553Z,71.02
2022-11-05T13:49:18.322Z,70.82
2022-11-05T13:50:37.078Z,70.72
2022-11-05T13:51:51.992Z,70.79
2022-11-05T13:53:15.111Z,70.90
2022-11-05T13:54:40.855Z,70.97
2022-11-05T13:55:58.998Z,70.78
2022-11-05T13:57:14.649Z,70.56
2022-11-05T13:58:45.060Z,70.56
2022-11-05T14:00:14.443Z,70.66
2022-11-05T14:01:36.035Z,70.71
2022-11-05T14:02:42.595Z,70.70
2022-11-05T14:03:49.192Z,70.75
2022-11-05T14:05:01.418Z,70.73
2022-11-05T14:06:06.174Z,70.58
2022-11-05T14:07:19.076Z,70.55
2022-11-05T14:08:25.597Z,70.47
2022-11-05T14:09:28.461Z,70.47
2022-11-05T14:10:40.305Z,70.48
2022-11-05T14:11:46.750Z,70.49
2022-11-05T14:12:52.831Z,70.45
2022-11-05T14:14:05.092Z,70.32
2022-11-05T14:15:17.665Z,70.37
2022-11-05T14:16:23.052Z,70.50
2022-11-05T14:17:32.601Z,70.52
2022-11-05T14:18:39.245Z,70.55
2022-11-05T14:20:05.311Z,70.51
2022-11-05T14:21:32.325Z,70.45
2022-11-05T14:22:41.209Z,70.47
2022-11-05T14:23:49.762Z,70.33
2022-11-05T14:24:52.901Z,70.31
2022-11-05T14:26:18.663Z,70.37
2022-11-05T17:02:12.596Z,75.68
2022-11-05T17:03:15.991Z,75.24
2022-11-05T17:04:19.022Z,75.10
2022-11-05T17:05:28.227Z,74.90
2022-11-05T17:06:31.521Z,74.85
2022-11-05T17:07:38.568Z,74.72
2022-11-05T17:08:39.780Z,74.63
2022-11-05T17:09:42.889Z,74.53
2022-11-05T17:10:45.999Z,74.35
2022-11-05T17:11:48.884Z,74.22
2022-11-05T17:12:52.156Z,74.16
2022-11-05T17:13:56.242Z,74.05
2022-11-05T17:14:59.442Z,74.09
2022-11-05T17:16:02.769Z,73.90
2022-11-05T17:17:05.956Z,73.81
2022-11-05T17:18:16.946Z,73.63
2022-11-05T17:19:15.926Z,73.47
2022-11-05T17:20:39.865Z,73.28
2022-11-05T17:21:39.612Z,73.16
2022-11-05T17:22:42.588Z,73.18
2022-11-05T17:23:45.666Z,73.11
2022-11-05T17:24:48.705Z,73.06
2022-11-05T17:25:54.525Z,72.97
2022-11-05T17:26:57.623Z,72.87
2022-11-05T17:28:01.342Z,72.78
2022-11-05T17:29:04.553Z,72.64
2022-11-05T17:30:09.115Z,72.61
2022-11-05T17:31:17.265Z,72.64
2022-11-05T17:32:20.502Z,72.37
2022-11-05T17:33:23.845Z,72.16
2022-11-05T17:34:27.041Z,72.01
2022-11-05T17:35:30.224Z,71.99
2022-11-05T17:36:33.299Z,71.95
2022-11-05T17:37:36.256Z,71.87
2022-11-05T17:38:39.405Z,71.87
2022-11-05T17:39:42.438Z,71.66
2022-11-05T17:40:45.556Z,71.63
2022-11-05T17:41:48.723Z,71.43
2022-11-05T17:42:52.228Z,71.29
2022-11-05T17:43:56.921Z,71.23
2022-11-05T17:45:00.226Z,71.25
2022-11-05T17:46:09.042Z,71.22
2022-11-05T17:47:13.156Z,70.96
2022-11-05T17:48:18.050Z,70.96
2022-11-05T17:49:21.570Z,70.88
2022-11-05T17:50:25.140Z,70.62
2022-11-05T17:51:28.220Z,70.48
2022-11-05T17:52:33.017Z,70.48
2022-11-05T17:53:36.892Z,70.33
2022-11-05T17:54:39.996Z,70.36
2022-11-05T17:55:44.924Z,70.34
2022-11-05T17:56:48.671Z,70.25
2022-11-05T17:57:54.398Z,70.04
2022-11-05T17:58:59.939Z,69.97
2022-11-05T18:00:04.964Z,69.95
2022-11-05T18:01:28.674Z,69.70
2022-11-05T18:02:33.538Z,69.41
2022-11-05T18:03:36.939Z,69.30
2022-11-05T18:04:40.117Z,69.37
2022-11-05T18:05:43.536Z,69.22
2022-11-05T18:06:46.891Z,69.20
2022-11-05T18:07:50.541Z,69.25
2022-11-05T18:08:53.668Z,69.17
2022-11-05T18:09:57.048Z,69.20
2022-11-05T18:11:00.126Z,69.30
2022-11-05T18:12:04.567Z,69.25
2022-11-05T18:13:07.705Z,69.18
2022-11-05T18:14:11.065Z,69.10
2022-11-05T18:15:14.578Z,68.82
2022-11-05T18:16:17.513Z,68.79
2022-11-05T18:17:20.666Z,68.57
2022-11-05T18:18:23.754Z,68.51
2022-11-05T18:19:27.525Z,68.48
2022-11-05T18:20:31.014Z,68.54
2022-11-05T18:21:34.176Z,68.53
2022-11-05T18:22:39.162Z,68.59
2022-11-05T18:23:42.673Z,68.45
2022-11-05T18:24:48.537Z,68.51
2022-11-05T18:25:51.771Z,68.42
2022-11-05T18:26:55.817Z,68.33
2022-11-05T18:27:59.087Z,68.22
2022-11-05T18:29:03.956Z,68.16
2022-11-05T18:30:10.220Z,68.17
2022-11-05T18:31:18.395Z,68.09
2022-11-05T18:32:21.357Z,68.03
2022-11-05T18:33:24.561Z,68.01
2022-11-05T18:34:27.423Z,67.93
2022-11-05T18:35:30.662Z,67.96
2022-11-05T18:36:33.898Z,67.88
2022-11-05T18:37:38.545Z,67.95
2022-11-05T18:38:41.661Z,67.84
2022-11-05T18:39:44.959Z,67.75
2022-11-05T18:40:48.052Z,67.74
2022-11-05T18:41:51.163Z,67.71
2022-11-05T18:42:54.440Z,67.58
2022-11-05T18:44:02.480Z,67.65
2022-11-05T18:45:06.646Z,67.57
2022-11-05T18:46:23.778Z,67.55
2022-11-05T18:47:16.088Z,67.50
2022-11-05T18:48:19.189Z,67.56
2022-11-05T18:49:22.303Z,67.45
2022-11-05T18:50:26.183Z,67.37
2022-11-05T18:51:29.288Z,67.31
2022-11-05T18:52:32.510Z,67.22
2022-11-05T18:53:35.569Z,67.17
2022-11-05T18:54:38.690Z,67.18
2022-11-05T18:55:41.788Z,67.16
2022-11-05T18:56:45.736Z,67.11
2022-11-05T18:57:49.091Z,67.10
2022-11-05T18:59:14.780Z,67.13
2022-11-05T18:59:58.115Z,67.10
2022-11-05T19:01:06.345Z,67.06
2022-11-05T19:02:07.551Z,67.03
2022-11-05T19:03:10.602Z,67.07
2022-11-05T19:04:14.434Z,66.91
2022-11-05T19:05:32.944Z,66.80
2022-11-05T19:06:24.440Z,66.78
2022-11-05T19:07:27.421Z,66.81
2022-11-05T19:08:32.023Z,66.77
2022-11-05T19:09:36.360Z,66.72
2022-11-05T19:10:40.786Z,66.64
2022-11-05T19:11:43.705Z,66.64
2022-11-05T19:12:47.117Z,66.74
2022-11-05T19:13:50.180Z,66.73
2022-11-05T19:14:56.692Z,66.62
2022-11-05T19:15:58.020Z,66.60
2022-11-05T19:17:01.676Z,66.54
2022-11-05T19:18:04.687Z,66.48
2022-11-05T19:19:07.678Z,66.42
2022-11-05T19:20:12.671Z,66.39
2022-11-05T19:21:19.048Z,66.42
2022-11-05T19:22:21.961Z,66.54
2022-11-05T19:23:24.844Z,66.45
2022-11-05T19:24:28.108Z,66.51
2022-11-05T19:25:31.405Z,66.42
2022-11-05T19:26:34.403Z,66.36
2022-11-05T19:27:38.287Z,66.46
2022-11-05T19:28:42.527Z,66.39
2022-11-05T19:29:46.824Z,66.43
2022-11-05T19:30:50.285Z,66.52
2022-11-05T19:31:53.168Z,66.50
2022-11-05T19:32:56.733Z,66.51
2022-11-05T19:34:04.866Z,66.53
2022-11-05T19:35:08.566Z,66.54
2022-11-05T19:36:14.817Z,66.55
2022-11-05T19:37:18.655Z,66.65
2022-11-05T19:38:22.141Z,66.61
2022-11-05T19:39:25.452Z,66.65
2022-11-05T19:40:28.409Z,66.50
2022-11-05T19:41:31.319Z,66.52
2022-11-05T19:42:34.180Z,66.52
2022-11-05T19:43:38.584Z,66.54
2022-11-05T19:44:42.565Z,66.47
2022-11-05T19:45:45.661Z,66.46
2022-11-05T19:46:48.627Z,66.42
2022-11-05T19:47:52.026Z,66.45
2022-11-05T19:48:55.200Z,66.40
2022-11-05T19:49:58.025Z,66.38
2022-11-05T19:51:12.101Z,66.33
2022-11-05T19:52:15.118Z,66.38
2022-11-05T19:53:18.206Z,66.30
2022-11-05T19:54:21.856Z,66.29
2022-11-05T19:55:26.155Z,66.37
2022-11-05T19:56:31.623Z,66.48
2022-11-05T19:57:38.366Z,66.51
2022-11-05T19:58:44.305Z,66.56
2022-11-05T19:59:47.493Z,66.51
2022-11-05T20:00:50.592Z,66.48
2022-11-05T20:01:54.189Z,66.47
2022-11-05T20:02:58.131Z,66.49
2022-11-05T20:04:01.912Z,66.44
2022-11-05T20:05:05.532Z,66.45
2022-11-05T20:06:11.632Z,66.55
2022-11-05T20:07:14.739Z,66.52
2022-11-05T20:08:17.728Z,66.52
2022-11-05T20:09:22.970Z,66.55
2022-11-05T20:10:26.082Z,66.53
2022-11-05T20:11:29.399Z,66.61
2022-11-05T20:12:32.451Z,66.63
2022-11-05T20:13:35.841Z,66.58
2022-11-05T20:14:38.730Z,66.70
2022-11-05T20:15:41.797Z,66.59
2022-11-05T20:16:45.900Z,66.60
2022-11-05T20:19:01.865Z,66.65
2022-11-05T20:20:06.608Z,66.63
2022-11-05T20:21:11.071Z,66.58
2022-11-05T20:22:13.987Z,66.54
2022-11-05T20:23:17.220Z,66.53
2022-11-05T20:24:25.257Z,66.52
2022-11-05T20:25:27.118Z,66.52
2022-11-05T20:26:30.409Z,66.58
2022-11-05T20:27:33.303Z,66.58
2022-11-05T20:28:37.591Z,66.57
2022-11-05T20:29:40.599Z,66.50
2022-11-05T20:30:43.597Z,66.56
2022-11-05T20:31:46.766Z,66.59
2022-11-05T20:32:54.782Z,66.65
2022-11-05T20:33:57.908Z,66.69
2022-11-05T20:35:00.771Z,66.80
2022-11-05T20:36:06.372Z,66.72
2022-11-05T20:37:09.358Z,66.73
2022-11-05T20:38:12.934Z,66.71
2022-11-05T20:39:17.178Z,66.65
2022-11-05T20:40:20.245Z,66.68
2022-11-05T20:41:24.222Z,66.75
2022-11-05T20:42:27.323Z,66.75
2022-11-05T20:43:31.167Z,66.75
2022-11-05T20:44:34.365Z,66.76
2022-11-05T20:45:37.865Z,66.89
2022-11-05T20:46:41.045Z,66.86
2022-11-05T20:47:44.204Z,66.82
2022-11-05T20:48:47.755Z,66.96
2022-11-05T20:49:51.316Z,66.97
2022-11-05T20:50:54.433Z,66.88
2022-11-05T20:51:57.347Z,66.84
2022-11-05T20:53:00.688Z,66.90
2022-11-05T20:54:03.734Z,66.92
2022-11-05T20:55:08.781Z,67.01
2022-11-05T20:56:21.103Z,67.14
2022-11-05T20:57:24.234Z,66.96
2022-11-05T20:58:27.615Z,66.94
2022-11-05T20:59:30.703Z,66.95
2022-11-05T21:00:33.851Z,67.14
2022-11-05T21:01:37.016Z,67.19
2022-11-05T21:02:41.288Z,67.14
2022-11-05T21:03:46.343Z,66.99
2022-11-05T21:04:49.421Z,66.92
2022-11-05T21:05:56.529Z,67.07
2022-11-05T21:06:59.507Z,67.09
2022-11-05T21:08:02.697Z,67.17
2022-11-05T21:09:06.188Z,67.19
2022-11-05T21:10:09.600Z,67.05
2022-11-05T21:11:12.548Z,67.09
2022-11-05T21:12:15.728Z,67.02
2022-11-05T21:13:18.958Z,67.13
2022-11-05T21:14:22.100Z,67.18
2022-11-05T21:15:25.111Z,67.15
2022-11-05T21:16:28.379Z,67.20
2022-11-05T21:17:31.330Z,67.32
2022-11-05T21:18:37.370Z,67.56
2022-11-05T21:19:40.751Z,67.61
2022-11-05T21:20:44.315Z,67.64
2022-11-05T21:21:47.253Z,67.60
2022-11-05T21:22:50.242Z,67.74
2022-11-05T21:23:53.100Z,67.76
2022-11-05T21:24:59.128Z,67.75